Terminal Aerodrome Forecast
Issued by NWS Central Illinois

Current Version | Previous Version | Text Only | Print | Product List | Glossary On
Versions: 1 2 3 4 5 6 7 8 9 10 11 12 13 14 15 16 17
352
FTUS43 KILX 121555 AAB
TAFPIA
TAF AMD
KPIA 121555Z 1216/1312 30011G17KT P6SM VCSH OVC014
      TEMPO 1216/1218 4SM -SN BR BKN009
     FM121800 32014G20KT P6SM BKN015
     FM122000 33014G22KT P6SM SKC=

USA.gov is the U.S. government's official web portal to all federal, state and local government web resources and services.